createdAt,value
2022-09-12T00:02:03.282Z,15.32
2022-09-12T00:04:30.377Z,9.32
2022-09-12T00:06:57.207Z,14.60
2022-09-12T00:09:24.018Z,13.40
2022-09-12T00:11:51.023Z,11.07
2022-09-12T00:14:18.964Z,11.80
2022-09-12T00:16:46.141Z,9.77
2022-09-12T00:19:13.135Z,11.55
2022-09-12T00:21:41.233Z,10.98
2022-09-12T00:24:09.241Z,11.07
2022-09-12T00:26:36.644Z,14.35
2022-09-12T00:29:04.489Z,14.88
2022-09-12T00:31:31.501Z,15.77
2022-09-12T00:34:03.233Z,15.55
2022-09-12T00:36:30.999Z,12.13
2022-09-12T00:38:58.477Z,15.73
2022-09-12T00:41:29.671Z,12.25
2022-09-12T00:43:58.682Z,17.60
2022-09-12T00:46:37.806Z,14.30
2022-09-12T00:49:13.123Z,15.50
2022-09-12T00:51:44.029Z,15.30
2022-09-12T00:54:21.250Z,14.52
2022-09-12T00:56:49.931Z,14.55
2022-09-12T00:59:31.313Z,14.68
2022-09-12T01:01:58.741Z,13.40
2022-09-12T01:04:27.950Z,13.18
2022-09-12T01:06:57.117Z,17.45
2022-09-12T01:09:25.807Z,16.42
2022-09-12T01:11:53.723Z,18.17
2022-09-12T01:14:21.372Z,13.68
2022-09-12T01:16:51.127Z,14.70
2022-09-12T01:19:52.376Z,16.48
2022-09-12T01:22:22.409Z,15.07
2022-09-12T01:25:13.111Z,13.88
2022-09-12T01:27:46.143Z,14.10
2022-09-12T01:30:20.866Z,13.35
2022-09-12T01:33:09.989Z,15.10
2022-09-12T01:35:49.664Z,14.95
2022-09-12T01:38:59.382Z,15.30
2022-09-12T01:41:47.135Z,19.38
2022-09-12T01:44:35.102Z,17.80
2022-09-12T01:47:20.816Z,14.40
2022-09-12T01:50:08.411Z,17.98
2022-09-12T01:52:53.964Z,18.92
2022-09-12T01:56:07.535Z,19.08
2022-09-12T01:58:47.116Z,19.95
2022-09-12T02:01:26.975Z,22.17
2022-09-12T02:04:15.594Z,18.52
2022-09-12T02:07:00.247Z,18.80
2022-09-12T02:09:32.318Z,17.58
2022-09-12T02:12:01.607Z,18.27
2022-09-12T02:14:42.634Z,16.98
2022-09-12T02:17:22.227Z,15.65
2022-09-12T02:19:58.182Z,14.88
2022-09-12T02:22:27.785Z,18.65
2022-09-12T02:24:57.676Z,19.30
2022-09-12T02:27:38.009Z,18.15
2022-09-12T02:30:07.008Z,17.35
2022-09-12T02:32:45.558Z,16.05
2022-09-12T02:35:35.964Z,15.98
2022-09-12T02:38:30.123Z,14.70
2022-09-12T02:40:57.285Z,18.23
2022-09-12T02:43:24.575Z,19.30
2022-09-12T02:45:51.611Z,15.23
2022-09-12T02:48:24.306Z,15.65
2022-09-12T02:50:51.791Z,18.45
2022-09-12T02:53:19.121Z,16.35
2022-09-12T02:55:46.474Z,16.00
2022-09-12T02:58:27.156Z,18.25
2022-09-12T03:01:03.763Z,16.98
2022-09-12T03:04:07.894Z,16.17
2022-09-12T03:06:53.185Z,16.88
2022-09-12T03:09:44.498Z,14.60
2022-09-12T03:12:37.465Z,17.13
2022-09-12T03:15:16.629Z,17.38
2022-09-12T03:18:02.648Z,13.70
2022-09-12T03:20:44.579Z,15.57
2022-09-12T03:23:38.957Z,17.13
2022-09-12T03:26:26.198Z,22.90
2022-09-12T03:28:55.960Z,16.77
2022-09-12T03:31:22.933Z,19.65
2022-09-12T03:33:49.779Z,15.48
2022-09-12T03:36:22.304Z,22.52
2022-09-12T03:38:49.411Z,17.17
2022-09-12T03:41:16.432Z,17.33
2022-09-12T03:43:43.220Z,21.52
2022-09-12T03:46:10.449Z,21.73
2022-09-12T03:48:37.408Z,20.23
2022-09-12T03:51:07.016Z,18.88
2022-09-12T03:53:34.699Z,16.65
2022-09-12T03:56:07.266Z,19.83
2022-09-12T03:58:36.827Z,19.15
2022-09-12T04:01:12.993Z,22.05
2022-09-12T04:03:41.442Z,18.65
2022-09-12T04:06:10.042Z,24.40
2022-09-12T04:08:37.980Z,18.38
2022-09-12T04:11:15.514Z,21.60
2022-09-12T04:13:44.905Z,21.27
2022-09-12T04:16:14.102Z,19.13
2022-09-12T04:18:41.377Z,20.85
2022-09-12T04:21:11.109Z,33.63
2022-09-12T04:23:38.658Z,24.35
2022-09-12T04:26:07.716Z,20.00
2022-09-12T04:28:36.458Z,18.38
2022-09-12T04:31:14.039Z,22.90
2022-09-12T04:33:41.259Z,20.15
2022-09-12T04:36:16.977Z,23.15
2022-09-12T04:38:46.159Z,23.23
2022-09-12T04:41:18.978Z,22.17
2022-09-12T04:43:47.241Z,20.60
2022-09-12T04:46:17.356Z,24.15
2022-09-12T04:48:44.667Z,20.50
2022-09-12T04:51:14.343Z,21.85
2022-09-12T04:53:42.229Z,18.90
2022-09-12T04:56:12.027Z,20.58
2022-09-12T04:58:39.475Z,19.85
2022-09-12T05:01:24.650Z,22.10
2022-09-12T05:03:52.205Z,19.55
2022-09-12T05:06:25.274Z,20.70
2022-09-12T05:08:53.343Z,19.27
2022-09-12T05:11:28.246Z,22.88
2022-09-12T05:14:00.532Z,22.75
2022-09-12T05:16:29.014Z,21.05
2022-09-12T05:18:58.680Z,20.35
2022-09-12T05:21:27.131Z,22.77
2022-09-12T05:23:56.123Z,31.05
2022-09-12T05:26:24.477Z,25.65
2022-09-12T05:28:53.342Z,19.15
2022-09-12T05:31:25.609Z,22.30
2022-09-12T05:33:54.625Z,26.13
2022-09-12T05:36:27.706Z,29.10
2022-09-12T05:38:54.936Z,22.70
2022-09-12T05:41:28.099Z,22.38
2022-09-12T05:43:57.185Z,28.27
2022-09-12T05:46:29.888Z,27.25
2022-09-12T05:48:58.470Z,23.17
2022-09-12T05:51:28.400Z,29.98
2022-09-12T05:54:01.229Z,24.73
2022-09-12T05:56:30.845Z,22.92
2022-09-12T05:59:02.101Z,23.90
2022-09-12T06:01:31.036Z,22.25
2022-09-12T06:04:03.144Z,22.50
2022-09-12T06:06:31.268Z,22.67
2022-09-12T06:09:00.418Z,23.92
2022-09-12T06:11:30.182Z,20.20
2022-09-12T06:13:58.549Z,26.67
2022-09-12T06:16:28.234Z,23.35
2022-09-12T06:18:57.479Z,18.10
2022-09-12T06:21:26.810Z,23.25
2022-09-12T06:23:55.699Z,19.15
2022-09-12T06:26:25.831Z,24.55
2022-09-12T06:28:54.657Z,20.23
2022-09-12T06:31:33.279Z,23.88
2022-09-12T06:34:03.765Z,18.58
2022-09-12T06:36:37.834Z,22.00
2022-09-12T06:39:11.259Z,19.77
2022-09-12T06:41:43.507Z,25.88
2022-09-12T06:44:17.156Z,21.10
2022-09-12T06:46:44.637Z,17.92
2022-09-12T06:49:12.452Z,20.48
2022-09-12T06:51:41.895Z,23.67
2022-09-12T06:54:09.785Z,18.65
2022-09-12T06:56:37.767Z,21.15
2022-09-12T06:59:04.749Z,24.00
2022-09-12T07:01:32.670Z,19.02
2022-09-12T07:04:02.593Z,17.40
2022-09-12T07:06:34.997Z,20.48
2022-09-12T07:09:07.046Z,19.90
2022-09-12T07:11:36.716Z,23.65
2022-09-12T07:14:06.221Z,16.55
2022-09-12T07:16:34.684Z,17.73
2022-09-12T07:19:04.030Z,15.18
2022-09-12T07:21:31.309Z,21.92
2022-09-12T07:23:58.812Z,23.50
2022-09-12T07:26:30.642Z,21.08
2022-09-12T07:29:18.649Z,20.52
2022-09-12T07:31:46.475Z,15.55
2022-09-12T07:34:14.028Z,16.70
2022-09-12T07:36:41.019Z,16.52
2022-09-12T07:39:07.860Z,17.88
2022-09-12T07:41:34.965Z,17.40
2022-09-12T07:44:03.303Z,21.65
2022-09-12T07:46:31.485Z,18.27
2022-09-12T07:48:59.942Z,18.40
2022-09-12T07:51:28.788Z,18.70
2022-09-12T07:53:56.565Z,16.73
2022-09-12T07:56:29.373Z,13.15
2022-09-12T07:58:57.811Z,12.48
2022-09-12T08:01:25.145Z,15.88
2022-09-12T08:03:57.454Z,16.45
2022-09-12T08:06:26.083Z,13.43
2022-09-12T08:08:55.926Z,13.60
2022-09-12T08:11:24.936Z,13.20
2022-09-12T08:13:55.707Z,11.68
2022-09-12T08:16:29.716Z,15.77
2022-09-12T08:18:57.004Z,17.08
2022-09-12T08:21:27.357Z,17.27
2022-09-12T08:23:56.597Z,10.75
2022-09-12T08:26:25.287Z,17.23
2022-09-12T08:28:53.268Z,13.93
2022-09-12T08:31:22.352Z,13.65
2022-09-12T08:33:49.585Z,19.85
2022-09-12T08:36:19.972Z,12.40
2022-09-12T08:38:48.750Z,12.75
2022-09-12T08:41:18.918Z,16.70
2022-09-12T08:43:57.840Z,13.98
2022-09-12T08:46:58.464Z,19.02
2022-09-12T08:49:33.979Z,12.10
2022-09-12T08:52:09.913Z,17.75
2022-09-12T08:54:38.038Z,14.38
2022-09-12T08:57:07.094Z,8.80
2022-09-12T08:59:41.818Z,13.13
2022-09-12T09:02:24.577Z,11.05
2022-09-12T09:04:58.605Z,11.98
2022-09-12T09:07:48.116Z,8.50
2022-09-12T09:10:38.809Z,8.60
2022-09-12T09:14:05.219Z,9.10
2022-09-12T09:16:39.548Z,9.55
2022-09-12T09:19:17.599Z,9.90
2022-09-12T09:22:02.969Z,8.35
2022-09-12T09:24:49.919Z,10.68
2022-09-12T09:27:39.501Z,9.38
2022-09-12T09:30:14.322Z,6.30
2022-09-12T09:32:43.027Z,10.63
2022-09-12T09:35:26.311Z,7.18
2022-09-12T09:38:11.423Z,5.35
2022-09-12T09:41:06.646Z,9.00
2022-09-12T09:43:33.888Z,7.53
2022-09-12T09:46:00.937Z,14.32
2022-09-12T09:48:33.668Z,9.38
2022-09-12T09:51:02.581Z,7.45
2022-09-12T09:53:53.981Z,7.15
2022-09-12T09:56:36.712Z,10.30
2022-09-12T09:59:11.931Z,7.57
2022-09-12T10:02:04.135Z,7.75
2022-09-12T10:04:37.978Z,7.60
2022-09-12T10:07:17.949Z,8.90
2022-09-12T10:10:17.846Z,7.35
2022-09-12T10:12:45.032Z,9.70
2022-09-12T10:15:26.604Z,9.20
2022-09-12T10:17:55.839Z,7.20
2022-09-12T10:20:32.107Z,6.75
2022-09-12T10:23:02.300Z,6.68
2022-09-12T10:25:29.363Z,3.80
2022-09-12T10:28:00.424Z,3.55
2022-09-12T10:30:30.695Z,3.72
2022-09-12T10:33:07.456Z,4.50
2022-09-12T10:35:46.037Z,5.85
2022-09-12T10:38:21.608Z,2.92
2022-09-12T10:40:57.527Z,5.40
2022-09-12T10:43:42.579Z,4.63
2022-09-12T10:46:18.375Z,4.00
2022-09-12T10:48:47.728Z,3.45
2022-09-12T10:51:30.510Z,1.50
2022-09-12T10:54:03.718Z,5.18
2022-09-12T10:56:43.259Z,7.03
2022-09-12T10:59:25.929Z,3.03
2022-09-12T11:02:12.511Z,5.63
2022-09-12T11:05:19.491Z,4.95
2022-09-12T11:08:02.425Z,3.47
2022-09-12T11:11:16.059Z,4.80
2022-09-12T11:13:54.589Z,3.83
2022-09-12T11:16:31.041Z,2.97
2022-09-12T11:19:19.353Z,2.53
2022-09-12T11:22:18.746Z,5.55
2022-09-12T11:24:51.813Z,3.35
2022-09-12T11:27:49.601Z,3.47
2022-09-12T11:30:18.383Z,3.97
2022-09-12T11:33:02.483Z,3.40
2022-09-12T11:35:34.679Z,4.18
2022-09-12T11:38:22.847Z,5.07
2022-09-12T11:41:00.155Z,3.42
2022-09-12T11:43:49.012Z,4.35
2022-09-12T11:46:25.770Z,3.08
2022-09-12T11:48:59.156Z,5.60
2022-09-12T11:51:55.998Z,2.65
2022-09-12T11:54:34.321Z,3.60
2022-09-12T11:57:36.323Z,4.18
2022-09-12T12:00:21.913Z,9.95
2022-09-12T12:03:14.093Z,2.53
2022-09-12T12:05:50.336Z,4.20
2022-09-12T12:08:17.894Z,6.45
2022-09-12T12:10:59.879Z,3.33
2022-09-12T12:13:38.781Z,16.70
2022-09-12T12:16:18.285Z,3.15
2022-09-12T12:18:45.657Z,5.18
2022-09-12T12:21:40.327Z,2.58
2022-09-12T12:24:10.035Z,2.20
2022-09-12T12:26:40.848Z,3.08
2022-09-12T12:29:17.760Z,3.83
2022-09-12T12:32:00.076Z,1.55
2022-09-12T12:34:30.649Z,2.03
2022-09-12T12:37:00.183Z,1.15
2022-09-12T12:39:34.394Z,2.65
2022-09-12T12:42:01.989Z,2.55
2022-09-12T12:44:50.205Z,5.53
2022-09-12T12:47:37.860Z,4.28
2022-09-12T12:50:26.794Z,4.50
2022-09-12T12:53:18.000Z,5.05
2022-09-12T12:55:44.840Z,3.65
2022-09-12T12:58:36.434Z,2.05
2022-09-12T13:01:12.635Z,3.22
2022-09-12T13:03:47.288Z,2.22
2022-09-12T13:06:34.175Z,2.15
2022-09-12T13:09:20.023Z,3.40
2022-09-12T13:11:47.303Z,3.35
2022-09-12T13:14:49.935Z,5.30
2022-09-12T13:17:29.286Z,1.80
2022-09-12T13:20:30.878Z,1.52
2022-09-12T13:22:58.500Z,5.78
2022-09-12T13:25:31.938Z,2.00
2022-09-12T13:28:13.611Z,2.22
2022-09-12T13:30:44.789Z,2.45
2022-09-12T13:33:37.451Z,3.88
2022-09-12T13:36:41.079Z,1.90
2022-09-12T13:39:26.654Z,2.92
2022-09-12T13:42:18.295Z,2.50
2022-09-12T13:44:52.980Z,2.88
2022-09-12T13:47:28.192Z,3.42
2022-09-12T13:49:56.052Z,2.75
2022-09-12T13:52:26.908Z,1.70
2022-09-12T13:54:58.310Z,2.03
2022-09-12T13:57:33.554Z,2.45
2022-09-12T14:00:04.954Z,1.35
2022-09-12T14:02:36.815Z,2.45
2022-09-12T14:05:14.673Z,4.20
2022-09-12T14:07:52.616Z,1.38
2022-09-12T14:10:30.388Z,2.30
2022-09-12T14:12:59.782Z,6.20
2022-09-12T14:15:30.284Z,4.45
2022-09-12T14:18:01.615Z,3.17
2022-09-12T14:20:33.657Z,2.20
2022-09-12T14:23:04.000Z,2.35
2022-09-12T14:25:41.362Z,1.08
2022-09-12T14:28:14.082Z,2.08
2022-09-12T14:30:41.080Z,2.17
2022-09-12T14:33:11.029Z,3.13
2022-09-12T14:35:43.762Z,3.00
2022-09-12T14:38:16.830Z,4.40
2022-09-12T14:40:49.200Z,6.78
2022-09-12T14:43:38.570Z,1.50
2022-09-12T14:46:15.013Z,2.88
2022-09-12T14:48:51.563Z,1.27
2022-09-12T14:51:51.185Z,3.00
2022-09-12T14:54:37.413Z,1.42
2022-09-12T14:57:32.053Z,3.63
2022-09-12T15:00:14.599Z,1.25
2022-09-12T15:02:45.753Z,4.00
2022-09-12T15:05:12.537Z,2.92
2022-09-12T15:08:02.681Z,2.78
2022-09-12T15:10:36.630Z,1.52
2022-09-12T15:13:12.151Z,4.20
2022-09-12T15:15:40.780Z,3.20
2022-09-12T15:18:08.569Z,4.65
2022-09-12T15:20:40.934Z,3.47
2022-09-12T15:23:31.195Z,1.90
2022-09-12T15:25:59.915Z,2.20
2022-09-12T15:28:27.315Z,1.13
2022-09-12T15:30:56.200Z,3.85
2022-09-12T15:33:25.237Z,2.13
2022-09-12T15:35:53.121Z,2.28
2022-09-12T15:38:25.657Z,2.05
2022-09-12T15:40:54.804Z,0.80
2022-09-12T15:43:23.612Z,1.67
2022-09-12T15:45:51.836Z,3.90
2022-09-12T15:48:21.093Z,2.45
2022-09-12T15:50:48.551Z,2.75
2022-09-12T15:53:17.445Z,1.90
2022-09-12T15:55:45.223Z,1.45
2022-09-12T15:58:12.508Z,3.03
2022-09-12T16:00:39.513Z,2.15
2022-09-12T16:03:07.125Z,1.25
2022-09-12T16:05:34.420Z,1.52
2022-09-12T16:08:01.544Z,1.23
2022-09-12T16:10:31.773Z,2.42
2022-09-12T16:12:59.789Z,4.72
2022-09-12T16:15:26.894Z,1.55
2022-09-12T16:17:54.018Z,2.30
2022-09-12T16:20:22.792Z,1.27
2022-09-12T16:22:49.764Z,1.58
2022-09-12T16:25:17.592Z,2.88
2022-09-12T16:27:45.289Z,2.60
2022-09-12T16:30:13.329Z,2.03
2022-09-12T16:32:40.617Z,7.90
2022-09-12T16:35:08.436Z,2.60
2022-09-12T16:37:35.666Z,3.47
2022-09-12T16:40:06.022Z,4.95
2022-09-12T16:42:33.119Z,1.63
2022-09-12T16:45:00.003Z,2.78
2022-09-12T16:47:27.212Z,1.77
2022-09-12T16:49:54.350Z,5.70
2022-09-12T16:52:21.428Z,2.50
2022-09-12T16:54:48.252Z,6.72
2022-09-12T16:57:15.376Z,2.28
2022-09-12T16:59:42.527Z,3.72
2022-09-12T17:02:13.429Z,3.25
2022-09-12T17:04:40.928Z,2.78
2022-09-12T17:07:08.603Z,5.43
2022-09-12T17:09:35.827Z,2.65
2022-09-12T17:12:03.134Z,3.63
2022-09-12T17:14:30.120Z,3.78
2022-09-12T17:16:57.157Z,8.90
2022-09-12T17:19:26.830Z,12.98
2022-09-12T17:21:54.598Z,5.55
2022-09-12T17:24:23.126Z,4.13
2022-09-12T17:26:52.394Z,6.30
2022-09-12T17:29:19.851Z,5.43
2022-09-12T17:31:46.990Z,6.38
2022-09-12T17:34:15.229Z,5.72
2022-09-12T17:36:48.507Z,3.47
2022-09-12T17:39:15.798Z,2.33
2022-09-12T17:41:43.176Z,5.53
2022-09-12T17:44:14.029Z,4.55
2022-09-12T17:46:41.180Z,3.00
2022-09-12T17:49:14.025Z,6.28
2022-09-12T17:51:43.602Z,5.15
2022-09-12T17:54:16.285Z,2.78
2022-09-12T17:56:46.041Z,3.42
2022-09-12T17:59:21.939Z,6.03
2022-09-12T18:02:07.917Z,6.75
2022-09-12T18:04:35.717Z,4.70
2022-09-12T18:07:02.635Z,2.08
2022-09-12T18:09:30.755Z,3.92
2022-09-12T18:11:58.801Z,1.88
2022-09-12T18:14:27.775Z,4.13
2022-09-12T18:16:57.263Z,6.57
2022-09-12T18:19:24.770Z,5.88
2022-09-12T18:21:51.872Z,4.60
2022-09-12T18:24:19.206Z,4.82
2022-09-12T18:26:47.187Z,6.10
2022-09-12T18:29:20.122Z,7.75
2022-09-12T18:31:47.218Z,4.18
2022-09-12T18:34:14.662Z,3.53
2022-09-12T18:36:42.889Z,3.55
2022-09-12T18:39:10.789Z,5.07
2022-09-12T18:41:38.037Z,4.60
2022-09-12T18:44:06.246Z,5.22
2022-09-12T18:46:35.025Z,4.38
2022-09-12T18:49:02.421Z,6.30
2022-09-12T18:51:32.997Z,5.10
2022-09-12T18:54:02.942Z,5.75
2022-09-12T18:56:35.292Z,5.95
2022-09-12T18:59:04.231Z,9.73
2022-09-12T19:01:38.479Z,5.57
2022-09-12T19:04:07.834Z,5.07
2022-09-12T19:06:37.516Z,5.43
2022-09-12T19:09:08.026Z,6.32
2022-09-12T19:11:37.064Z,8.65
2022-09-12T19:14:05.450Z,5.53
2022-09-12T19:16:32.984Z,7.38
2022-09-12T19:19:00.173Z,7.60
2022-09-12T19:21:29.905Z,6.60
2022-09-12T19:24:00.089Z,5.53
2022-09-12T19:26:28.802Z,5.30
2022-09-12T19:28:56.777Z,4.70
2022-09-12T19:31:24.596Z,9.50
2022-09-12T19:33:52.642Z,4.65
2022-09-12T19:36:43.924Z,6.85
2022-09-12T19:39:08.901Z,9.88
2022-09-12T19:41:36.831Z,9.23
2022-09-12T19:44:05.207Z,8.50
2022-09-12T19:46:32.291Z,6.75
2022-09-12T19:48:59.315Z,5.05
2022-09-12T19:51:26.618Z,5.68
2022-09-12T19:53:54.207Z,11.60
2022-09-12T19:56:21.934Z,6.22
2022-09-12T19:58:55.307Z,5.20
2022-09-12T20:01:28.817Z,8.50
2022-09-12T20:03:57.582Z,4.97
2022-09-12T20:06:25.579Z,7.70
2022-09-12T20:08:52.586Z,5.68
2022-09-12T20:11:21.699Z,9.35
2022-09-12T20:13:48.789Z,4.78
2022-09-12T20:16:22.136Z,4.57
2022-09-12T20:18:54.525Z,6.68
2022-09-12T20:21:32.078Z,4.45
2022-09-12T20:24:10.758Z,5.90
2022-09-12T20:26:38.519Z,6.97
2022-09-12T20:29:07.247Z,9.23
2022-09-12T20:31:35.072Z,4.60
2022-09-12T20:34:02.418Z,9.52
2022-09-12T20:36:29.375Z,4.45
2022-09-12T20:38:59.945Z,10.27
2022-09-12T20:41:29.564Z,6.03
2022-09-12T20:43:57.214Z,7.95
2022-09-12T20:46:25.880Z,8.23
2022-09-12T20:48:53.388Z,9.88
2022-09-12T20:51:21.126Z,6.20
2022-09-12T20:53:48.656Z,6.45
2022-09-12T20:56:15.891Z,12.73
2022-09-12T20:58:44.409Z,6.47
2022-09-12T21:01:13.724Z,5.28
2022-09-12T21:03:44.907Z,6.22
2022-09-12T21:06:12.960Z,7.88
2022-09-12T21:08:40.440Z,6.95
2022-09-12T21:11:07.660Z,6.82
2022-09-12T21:13:34.717Z,6.32
2022-09-12T21:16:13.906Z,9.13
2022-09-12T21:18:41.308Z,5.53
2022-09-12T21:21:09.894Z,6.53
2022-09-12T21:23:37.038Z,4.63
2022-09-12T21:26:04.799Z,4.38
2022-09-12T21:28:32.030Z,5.07
2022-09-12T21:30:58.993Z,6.45
2022-09-12T21:33:26.066Z,6.80
2022-09-12T21:35:52.879Z,8.43
2022-09-12T21:38:20.741Z,6.03
2022-09-12T21:40:48.441Z,5.88
2022-09-12T21:43:15.662Z,4.97
2022-09-12T21:45:42.746Z,8.32
2022-09-12T21:48:09.693Z,4.93
2022-09-12T21:50:36.567Z,4.22
2022-09-12T21:53:03.605Z,8.10
2022-09-12T21:55:31.199Z,8.98
2022-09-12T21:57:57.995Z,4.95
2022-09-12T22:00:25.957Z,7.60
2022-09-12T22:02:56.293Z,7.65
2022-09-12T22:05:23.769Z,6.47
2022-09-12T22:07:51.217Z,7.30
2022-09-12T22:10:18.405Z,12.23
2022-09-12T22:12:46.452Z,7.50
2022-09-12T22:15:39.035Z,10.13
2022-09-12T22:18:01.167Z,10.85
2022-09-12T22:20:28.092Z,9.00
2022-09-12T22:23:14.041Z,6.55
2022-09-12T22:25:41.152Z,12.25
2022-09-12T22:28:08.728Z,5.10
2022-09-12T22:30:36.017Z,6.97
2022-09-12T22:33:02.980Z,5.30
2022-09-12T22:35:29.856Z,7.10
2022-09-12T22:37:56.715Z,7.03
2022-09-12T22:40:23.804Z,6.05
2022-09-12T22:42:54.080Z,8.20
2022-09-12T22:45:24.546Z,3.97
2022-09-12T22:47:51.440Z,6.65
2022-09-12T22:50:18.269Z,7.97
2022-09-12T22:52:45.266Z,5.85
2022-09-12T22:55:12.137Z,8.02
2022-09-12T22:57:39.745Z,9.85
2022-09-12T23:00:10.492Z,5.55
2022-09-12T23:02:38.298Z,5.82
2022-09-12T23:05:06.150Z,8.45
2022-09-12T23:07:33.661Z,6.72
2022-09-12T23:10:00.661Z,8.60
2022-09-12T23:12:27.580Z,6.72
2022-09-12T23:14:54.999Z,5.63
2022-09-12T23:17:21.950Z,6.15
2022-09-12T23:19:48.833Z,9.25
2022-09-12T23:22:15.821Z,10.93
2022-09-12T23:24:42.771Z,7.95
2022-09-12T23:27:09.832Z,6.57
2022-09-12T23:29:36.801Z,6.07
2022-09-12T23:32:04.579Z,7.72
2022-09-12T23:34:31.410Z,8.32
2022-09-12T23:37:01.318Z,5.15
2022-09-12T23:39:28.377Z,7.28
2022-09-12T23:41:55.768Z,6.05
2022-09-12T23:44:22.919Z,6.68
2022-09-12T23:46:50.061Z,8.13
2022-09-12T23:49:17.015Z,6.38
2022-09-12T23:51:44.836Z,8.43
2022-09-12T23:54:11.705Z,10.82
2022-09-12T23:56:38.617Z,9.45
2022-09-12T23:59:05.741Z,6.35
